sensor_id;sensor_type;location;lat;lon;timestamp;P1;durP1;ratioP1;P2;durP2;ratioP2
42726;SDS011;28372;56.832;60.658;2023-01-05T00:01:46;0.85;;;0.80;;
42726;SDS011;28372;56.832;60.658;2023-01-05T00:04:14;4.85;;;1.30;;
42726;SDS011;28372;56.832;60.658;2023-01-05T00:06:42;2.10;;;1.20;;
42726;SDS011;28372;56.832;60.658;2023-01-05T00:09:11;1.13;;;0.93;;
42726;SDS011;28372;56.832;60.658;2023-01-05T00:11:40;3.03;;;0.88;;
42726;SDS011;28372;56.832;60.658;2023-01-05T00:14:28;0.88;;;0.85;;
42726;SDS011;28372;56.832;60.658;2023-01-05T00:17:16;1.88;;;0.73;;
42726;SDS011;28372;56.832;60.658;2023-01-05T00:20:06;0.60;;;0.60;;
42726;SDS011;28372;56.832;60.658;2023-01-05T00:22:57;1.70;;;1.38;;
42726;SDS011;28372;56.832;60.658;2023-01-05T00:25:26;4.18;;;1.40;;
42726;SDS011;28372;56.832;60.658;2023-01-05T00:27:55;3.05;;;1.67;;
42726;SDS011;28372;56.832;60.658;2023-01-05T00:30:27;7.35;;;1.52;;
42726;SDS011;28372;56.832;60.658;2023-01-05T00:32:57;2.70;;;1.17;;
42726;SDS011;28372;56.832;60.658;2023-01-05T00:35:25;1.90;;;0.98;;
42726;SDS011;28372;56.832;60.658;2023-01-05T00:37:52;5.30;;;1.88;;
42726;SDS011;28372;56.832;60.658;2023-01-05T00:40:21;0.55;;;0.55;;
42726;SDS011;28372;56.832;60.658;2023-01-05T00:42:48;2.72;;;1.30;;
42726;SDS011;28372;56.832;60.658;2023-01-05T00:45:16;1.23;;;0.98;;
42726;SDS011;28372;56.832;60.658;2023-01-05T00:47:46;1.08;;;1.02;;
42726;SDS011;28372;56.832;60.658;2023-01-05T00:50:15;2.30;;;1.65;;
42726;SDS011;28372;56.832;60.658;2023-01-05T00:52:44;1.20;;;1.10;;
42726;SDS011;28372;56.832;60.658;2023-01-05T00:55:12;2.70;;;1.48;;
42726;SDS011;28372;56.832;60.658;2023-01-05T00:57:40;1.45;;;1.35;;
42726;SDS011;28372;56.832;60.658;2023-01-05T01:00:10;2.00;;;1.63;;
42726;SDS011;28372;56.832;60.658;2023-01-05T01:02:41;1.15;;;0.77;;
42726;SDS011;28372;56.832;60.658;2023-01-05T01:05:09;1.25;;;1.02;;
42726;SDS011;28372;56.832;60.658;2023-01-05T01:07:36;2.50;;;0.80;;
42726;SDS011;28372;56.832;60.658;2023-01-05T01:10:04;4.40;;;1.52;;
42726;SDS011;28372;56.832;60.658;2023-01-05T01:12:33;4.47;;;1.27;;
42726;SDS011;28372;56.832;60.658;2023-01-05T01:15:01;1.33;;;0.65;;
42726;SDS011;28372;56.832;60.658;2023-01-05T01:17:30;1.13;;;1.02;;
42726;SDS011;28372;56.832;60.658;2023-01-05T01:19:59;2.03;;;0.73;;
42726;SDS011;28372;56.832;60.658;2023-01-05T01:22:29;2.72;;;0.98;;
42726;SDS011;28372;56.832;60.658;2023-01-05T01:24:57;7.00;;;1.30;;
42726;SDS011;28372;56.832;60.658;2023-01-05T01:27:24;1.30;;;0.90;;
42726;SDS011;28372;56.832;60.658;2023-01-05T01:29:52;1.75;;;1.02;;
42726;SDS011;28372;56.832;60.658;2023-01-05T01:32:20;4.60;;;1.20;;
42726;SDS011;28372;56.832;60.658;2023-01-05T01:34:47;2.45;;;1.27;;
42726;SDS011;28372;56.832;60.658;2023-01-05T01:37:16;0.98;;;0.75;;
42726;SDS011;28372;56.832;60.658;2023-01-05T01:39:48;1.58;;;1.48;;
42726;SDS011;28372;56.832;60.658;2023-01-05T01:42:16;2.20;;;1.27;;
42726;SDS011;28372;56.832;60.658;2023-01-05T01:47:23;2.75;;;1.52;;
42726;SDS011;28372;56.832;60.658;2023-01-05T01:50:00;1.70;;;1.40;;
42726;SDS011;28372;56.832;60.658;2023-01-05T01:52:37;1.40;;;0.85;;
42726;SDS011;28372;56.832;60.658;2023-01-05T01:55:06;2.95;;;1.88;;
42726;SDS011;28372;56.832;60.658;2023-01-05T01:57:34;0.90;;;0.80;;
42726;SDS011;28372;56.832;60.658;2023-01-05T02:00:04;1.67;;;1.23;;
42726;SDS011;28372;56.832;60.658;2023-01-05T02:02:45;4.88;;;1.88;;
42726;SDS011;28372;56.832;60.658;2023-01-05T02:05:25;1.33;;;1.23;;
42726;SDS011;28372;56.832;60.658;2023-01-05T02:07:55;1.10;;;1.00;;
42726;SDS011;28372;56.832;60.658;2023-01-05T02:19:14;2.80;;;1.33;;
42726;SDS011;28372;56.832;60.658;2023-01-05T02:28:16;0.80;;;0.80;;
42726;SDS011;28372;56.832;60.658;2023-01-05T02:36:59;0.65;;;0.65;;
42726;SDS011;28372;56.832;60.658;2023-01-05T02:39:48;0.90;;;0.90;;
42726;SDS011;28372;56.832;60.658;2023-01-05T02:42:25;3.08;;;1.15;;
42726;SDS011;28372;56.832;60.658;2023-01-05T02:45:00;1.05;;;0.73;;
42726;SDS011;28372;56.832;60.658;2023-01-05T02:50:04;4.95;;;1.30;;
42726;SDS011;28372;56.832;60.658;2023-01-05T02:52:51;0.68;;;0.63;;
42726;SDS011;28372;56.832;60.658;2023-01-05T02:58:09;6.50;;;0.80;;
42726;SDS011;28372;56.832;60.658;2023-01-05T03:00:47;2.15;;;1.58;;
42726;SDS011;28372;56.832;60.658;2023-01-05T03:06:16;0.80;;;0.65;;
42726;SDS011;28372;56.832;60.658;2023-01-05T03:08:50;5.82;;;1.27;;
42726;SDS011;28372;56.832;60.658;2023-01-05T03:11:24;1.05;;;1.05;;
42726;SDS011;28372;56.832;60.658;2023-01-05T03:14:51;0.90;;;0.73;;
42726;SDS011;28372;56.832;60.658;2023-01-05T03:17:45;0.95;;;0.65;;
42726;SDS011;28372;56.832;60.658;2023-01-05T03:20:15;1.35;;;1.20;;
42726;SDS011;28372;56.832;60.658;2023-01-05T03:22:46;1.70;;;1.27;;
42726;SDS011;28372;56.832;60.658;2023-01-05T03:25:36;1.65;;;1.48;;
42726;SDS011;28372;56.832;60.658;2023-01-05T03:29:10;4.20;;;1.05;;
42726;SDS011;28372;56.832;60.658;2023-01-05T03:32:04;1.00;;;0.88;;
42726;SDS011;28372;56.832;60.658;2023-01-05T03:35:02;1.05;;;0.88;;
42726;SDS011;28372;56.832;60.658;2023-01-05T03:40:42;2.97;;;1.77;;
42726;SDS011;28372;56.832;60.658;2023-01-05T03:43:11;3.00;;;0.82;;
42726;SDS011;28372;56.832;60.658;2023-01-05T03:45:50;1.63;;;1.52;;
42726;SDS011;28372;56.832;60.658;2023-01-05T03:48:26;3.08;;;0.60;;
42726;SDS011;28372;56.832;60.658;2023-01-05T03:50:55;0.60;;;0.57;;
42726;SDS011;28372;56.832;60.658;2023-01-05T03:53:24;1.25;;;1.02;;
42726;SDS011;28372;56.832;60.658;2023-01-05T03:55:52;0.75;;;0.75;;
42726;SDS011;28372;56.832;60.658;2023-01-05T03:58:22;1.08;;;0.85;;
42726;SDS011;28372;56.832;60.658;2023-01-05T04:00:50;4.18;;;1.08;;
42726;SDS011;28372;56.832;60.658;2023-01-05T04:03:20;0.73;;;0.70;;
42726;SDS011;28372;56.832;60.658;2023-01-05T04:05:57;2.05;;;1.30;;
42726;SDS011;28372;56.832;60.658;2023-01-05T04:08:28;3.83;;;1.80;;
42726;SDS011;28372;56.832;60.658;2023-01-05T04:11:03;5.28;;;1.15;;
42726;SDS011;28372;56.832;60.658;2023-01-05T04:13:59;1.52;;;1.38;;
42726;SDS011;28372;56.832;60.658;2023-01-05T04:16:27;1.80;;;1.65;;
42726;SDS011;28372;56.832;60.658;2023-01-05T04:19:00;3.15;;;2.05;;
42726;SDS011;28372;56.832;60.658;2023-01-05T04:21:27;2.85;;;1.35;;
42726;SDS011;28372;56.832;60.658;2023-01-05T04:23:55;1.20;;;1.05;;
42726;SDS011;28372;56.832;60.658;2023-01-05T04:26:23;4.72;;;1.55;;
42726;SDS011;28372;56.832;60.658;2023-01-05T04:28:51;2.53;;;1.23;;
42726;SDS011;28372;56.832;60.658;2023-01-05T04:31:22;4.35;;;2.63;;
42726;SDS011;28372;56.832;60.658;2023-01-05T04:33:53;4.95;;;1.00;;
42726;SDS011;28372;56.832;60.658;2023-01-05T04:36:23;5.25;;;1.77;;
42726;SDS011;28372;56.832;60.658;2023-01-05T04:38:53;1.30;;;0.82;;
42726;SDS011;28372;56.832;60.658;2023-01-05T04:41:21;6.65;;;2.33;;
42726;SDS011;28372;56.832;60.658;2023-01-05T04:43:50;4.43;;;2.10;;
42726;SDS011;28372;56.832;60.658;2023-01-05T04:46:19;1.33;;;0.88;;
42726;SDS011;28372;56.832;60.658;2023-01-05T04:48:49;0.65;;;0.65;;
42726;SDS011;28372;56.832;60.658;2023-01-05T04:51:19;4.55;;;1.17;;
42726;SDS011;28372;56.832;60.658;2023-01-05T04:53:49;1.23;;;1.13;;
42726;SDS011;28372;56.832;60.658;2023-01-05T04:56:22;0.98;;;0.90;;
42726;SDS011;28372;56.832;60.658;2023-01-05T04:58:50;1.42;;;1.33;;
42726;SDS011;28372;56.832;60.658;2023-01-05T05:01:17;0.88;;;0.88;;
42726;SDS011;28372;56.832;60.658;2023-01-05T05:03:50;1.10;;;1.00;;
42726;SDS011;28372;56.832;60.658;2023-01-05T05:06:20;1.45;;;1.35;;
42726;SDS011;28372;56.832;60.658;2023-01-05T05:08:49;2.78;;;1.75;;
42726;SDS011;28372;56.832;60.658;2023-01-05T05:11:16;1.63;;;1.50;;
42726;SDS011;28372;56.832;60.658;2023-01-05T05:13:46;3.22;;;1.63;;
42726;SDS011;28372;56.832;60.658;2023-01-05T05:16:17;3.15;;;1.80;;
42726;SDS011;28372;56.832;60.658;2023-01-05T05:18:46;2.35;;;1.50;;
42726;SDS011;28372;56.832;60.658;2023-01-05T05:21:19;1.27;;;1.10;;
42726;SDS011;28372;56.832;60.658;2023-01-05T05:23:47;0.93;;;0.90;;
42726;SDS011;28372;56.832;60.658;2023-01-05T05:26:18;6.60;;;1.67;;
42726;SDS011;28372;56.832;60.658;2023-01-05T05:28:47;5.20;;;2.03;;
42726;SDS011;28372;56.832;60.658;2023-01-05T05:31:17;18.35;;;3.17;;
42726;SDS011;28372;56.832;60.658;2023-01-05T05:33:44;2.80;;;1.38;;
42726;SDS011;28372;56.832;60.658;2023-01-05T05:36:12;2.92;;;1.80;;
42726;SDS011;28372;56.832;60.658;2023-01-05T05:38:40;3.28;;;1.67;;
42726;SDS011;28372;56.832;60.658;2023-01-05T05:41:10;3.05;;;1.98;;
42726;SDS011;28372;56.832;60.658;2023-01-05T05:43:41;3.08;;;1.85;;
42726;SDS011;28372;56.832;60.658;2023-01-05T05:46:08;2.88;;;1.85;;
42726;SDS011;28372;56.832;60.658;2023-01-05T05:48:36;5.38;;;2.20;;
42726;SDS011;28372;56.832;60.658;2023-01-05T05:51:06;3.05;;;2.58;;
42726;SDS011;28372;56.832;60.658;2023-01-05T05:53:36;9.88;;;2.25;;
42726;SDS011;28372;56.832;60.658;2023-01-05T05:56:03;2.42;;;1.77;;
42726;SDS011;28372;56.832;60.658;2023-01-05T05:58:31;2.25;;;1.67;;
42726;SDS011;28372;56.832;60.658;2023-01-05T06:00:59;3.25;;;2.00;;
42726;SDS011;28372;56.832;60.658;2023-01-05T06:03:27;2.90;;;2.17;;
42726;SDS011;28372;56.832;60.658;2023-01-05T06:05:54;6.55;;;1.85;;
42726;SDS011;28372;56.832;60.658;2023-01-05T06:08:22;4.47;;;2.30;;
42726;SDS011;28372;56.832;60.658;2023-01-05T06:10:50;6.03;;;2.72;;
42726;SDS011;28372;56.832;60.658;2023-01-05T06:13:18;2.58;;;1.25;;
42726;SDS011;28372;56.832;60.658;2023-01-05T06:15:45;4.65;;;2.15;;
42726;SDS011;28372;56.832;60.658;2023-01-05T06:18:13;5.60;;;2.20;;
42726;SDS011;28372;56.832;60.658;2023-01-05T06:20:41;3.97;;;2.40;;
42726;SDS011;28372;56.832;60.658;2023-01-05T06:23:08;8.55;;;3.05;;
42726;SDS011;28372;56.832;60.658;2023-01-05T06:25:36;3.92;;;1.98;;
42726;SDS011;28372;56.832;60.658;2023-01-05T06:28:04;4.82;;;2.63;;
42726;SDS011;28372;56.832;60.658;2023-01-05T06:30:31;5.50;;;2.60;;
42726;SDS011;28372;56.832;60.658;2023-01-05T06:32:59;10.02;;;4.22;;
42726;SDS011;28372;56.832;60.658;2023-01-05T06:35:27;11.73;;;3.80;;
42726;SDS011;28372;56.832;60.658;2023-01-05T06:37:55;23.50;;;5.38;;
42726;SDS011;28372;56.832;60.658;2023-01-05T06:40:22;14.80;;;5.65;;
42726;SDS011;28372;56.832;60.658;2023-01-05T06:42:50;17.15;;;6.70;;
42726;SDS011;28372;56.832;60.658;2023-01-05T06:45:17;18.50;;;7.38;;
42726;SDS011;28372;56.832;60.658;2023-01-05T06:47:45;22.27;;;8.38;;
42726;SDS011;28372;56.832;60.658;2023-01-05T06:50:13;24.85;;;10.20;;
42726;SDS011;28372;56.832;60.658;2023-01-05T06:52:40;31.40;;;12.55;;
42726;SDS011;28372;56.832;60.658;2023-01-05T06:55:08;32.33;;;12.65;;
42726;SDS011;28372;56.832;60.658;2023-01-05T06:57:37;28.75;;;12.65;;
42726;SDS011;28372;56.832;60.658;2023-01-05T07:00:06;27.98;;;12.60;;
42726;SDS011;28372;56.832;60.658;2023-01-05T07:02:36;28.30;;;12.38;;
42726;SDS011;28372;56.832;60.658;2023-01-05T07:05:04;30.58;;;12.65;;
42726;SDS011;28372;56.832;60.658;2023-01-05T07:07:32;29.27;;;13.38;;
42726;SDS011;28372;56.832;60.658;2023-01-05T07:10:00;26.40;;;12.32;;
42726;SDS011;28372;56.832;60.658;2023-01-05T07:12:29;22.25;;;11.43;;
42726;SDS011;28372;56.832;60.658;2023-01-05T07:14:58;29.42;;;12.43;;
42726;SDS011;28372;56.832;60.658;2023-01-05T07:17:25;24.77;;;11.68;;
42726;SDS011;28372;56.832;60.658;2023-01-05T07:19:53;24.30;;;13.00;;
42726;SDS011;28372;56.832;60.658;2023-01-05T07:22:21;31.85;;;14.60;;
42726;SDS011;28372;56.832;60.658;2023-01-05T07:24:48;30.40;;;12.77;;
42726;SDS011;28372;56.832;60.658;2023-01-05T07:27:16;24.85;;;11.55;;
42726;SDS011;28372;56.832;60.658;2023-01-05T07:29:52;26.83;;;12.32;;
42726;SDS011;28372;56.832;60.658;2023-01-05T07:32:19;33.38;;;14.27;;
42726;SDS011;28372;56.832;60.658;2023-01-05T07:34:47;32.60;;;16.40;;
42726;SDS011;28372;56.832;60.658;2023-01-05T07:37:22;29.40;;;13.98;;
42726;SDS011;28372;56.832;60.658;2023-01-05T07:39:51;28.63;;;15.55;;
42726;SDS011;28372;56.832;60.658;2023-01-05T07:42:19;41.20;;;22.27;;
42726;SDS011;28372;56.832;60.658;2023-01-05T07:44:48;46.03;;;26.30;;
42726;SDS011;28372;56.832;60.658;2023-01-05T07:47:16;48.53;;;26.17;;
42726;SDS011;28372;56.832;60.658;2023-01-05T07:49:44;43.42;;;23.65;;
42726;SDS011;28372;56.832;60.658;2023-01-05T07:52:12;57.30;;;31.88;;
42726;SDS011;28372;56.832;60.658;2023-01-05T07:54:40;45.83;;;23.40;;
42726;SDS011;28372;56.832;60.658;2023-01-05T07:57:07;41.63;;;22.23;;
42726;SDS011;28372;56.832;60.658;2023-01-05T07:59:35;34.67;;;16.30;;
42726;SDS011;28372;56.832;60.658;2023-01-05T08:02:02;31.52;;;15.75;;
42726;SDS011;28372;56.832;60.658;2023-01-05T08:04:30;35.50;;;17.92;;
42726;SDS011;28372;56.832;60.658;2023-01-05T08:06:58;56.25;;;31.13;;
42726;SDS011;28372;56.832;60.658;2023-01-05T08:09:25;42.55;;;22.77;;
42726;SDS011;28372;56.832;60.658;2023-01-05T08:12:11;34.95;;;18.08;;
42726;SDS011;28372;56.832;60.658;2023-01-05T08:14:39;30.45;;;16.42;;
42726;SDS011;28372;56.832;60.658;2023-01-05T08:17:07;34.42;;;15.63;;
42726;SDS011;28372;56.832;60.658;2023-01-05T08:19:35;31.17;;;15.15;;
42726;SDS011;28372;56.832;60.658;2023-01-05T08:22:02;26.20;;;12.57;;
42726;SDS011;28372;56.832;60.658;2023-01-05T08:24:30;29.67;;;13.48;;
42726;SDS011;28372;56.832;60.658;2023-01-05T08:26:57;23.38;;;11.93;;
42726;SDS011;28372;56.832;60.658;2023-01-05T08:29:25;39.13;;;18.13;;
42726;SDS011;28372;56.832;60.658;2023-01-05T08:31:53;34.95;;;17.25;;
42726;SDS011;28372;56.832;60.658;2023-01-05T08:34:20;31.33;;;15.38;;
42726;SDS011;28372;56.832;60.658;2023-01-05T08:36:48;38.92;;;17.88;;
42726;SDS011;28372;56.832;60.658;2023-01-05T08:39:16;31.50;;;14.93;;
42726;SDS011;28372;56.832;60.658;2023-01-05T08:41:43;36.58;;;16.88;;
42726;SDS011;28372;56.832;60.658;2023-01-05T08:44:11;31.85;;;15.75;;
42726;SDS011;28372;56.832;60.658;2023-01-05T08:46:40;37.28;;;16.45;;
42726;SDS011;28372;56.832;60.658;2023-01-05T08:49:08;35.90;;;15.40;;
42726;SDS011;28372;56.832;60.658;2023-01-05T08:51:36;36.42;;;15.15;;
42726;SDS011;28372;56.832;60.658;2023-01-05T08:54:04;32.67;;;14.68;;
42726;SDS011;28372;56.832;60.658;2023-01-05T08:56:32;46.17;;;19.23;;
42726;SDS011;28372;56.832;60.658;2023-01-05T08:59:04;41.95;;;17.67;;
42726;SDS011;28372;56.832;60.658;2023-01-05T09:01:32;41.38;;;16.92;;
42726;SDS011;28372;56.832;60.658;2023-01-05T09:04:00;41.78;;;17.92;;
42726;SDS011;28372;56.832;60.658;2023-01-05T09:06:28;34.70;;;14.68;;
42726;SDS011;28372;56.832;60.658;2023-01-05T09:08:55;30.63;;;13.90;;
42726;SDS011;28372;56.832;60.658;2023-01-05T09:11:23;34.13;;;15.25;;
42726;SDS011;28372;56.832;60.658;2023-01-05T09:13:52;39.15;;;15.02;;
42726;SDS011;28372;56.832;60.658;2023-01-05T09:16:23;29.63;;;13.95;;
42726;SDS011;28372;56.832;60.658;2023-01-05T09:19:13;28.98;;;14.50;;
42726;SDS011;28372;56.832;60.658;2023-01-05T09:21:40;27.90;;;12.70;;
42726;SDS011;28372;56.832;60.658;2023-01-05T09:24:08;27.83;;;13.57;;
42726;SDS011;28372;56.832;60.658;2023-01-05T09:26:41;34.05;;;13.98;;
42726;SDS011;28372;56.832;60.658;2023-01-05T09:29:09;30.05;;;13.40;;
42726;SDS011;28372;56.832;60.658;2023-01-05T09:31:39;33.65;;;13.60;;
42726;SDS011;28372;56.832;60.658;2023-01-05T09:34:06;33.13;;;13.98;;
42726;SDS011;28372;56.832;60.658;2023-01-05T09:36:35;26.98;;;12.10;;
42726;SDS011;28372;56.832;60.658;2023-01-05T09:39:04;26.27;;;10.57;;
42726;SDS011;28372;56.832;60.658;2023-01-05T09:44:05;23.33;;;9.63;;
42726;SDS011;28372;56.832;60.658;2023-01-05T09:46:40;24.95;;;11.02;;
42726;SDS011;28372;56.832;60.658;2023-01-05T09:49:12;22.02;;;9.57;;
42726;SDS011;28372;56.832;60.658;2023-01-05T09:51:41;22.17;;;9.68;;
42726;SDS011;28372;56.832;60.658;2023-01-05T09:54:13;23.15;;;10.50;;
42726;SDS011;28372;56.832;60.658;2023-01-05T09:56:47;22.90;;;9.48;;
42726;SDS011;28372;56.832;60.658;2023-01-05T09:59:36;21.80;;;9.17;;
42726;SDS011;28372;56.832;60.658;2023-01-05T10:02:19;21.20;;;8.57;;
42726;SDS011;28372;56.832;60.658;2023-01-05T10:04:57;20.30;;;8.93;;
42726;SDS011;28372;56.832;60.658;2023-01-05T10:07:30;21.98;;;9.13;;
42726;SDS011;28372;56.832;60.658;2023-01-05T10:10:31;21.05;;;8.23;;
42726;SDS011;28372;56.832;60.658;2023-01-05T10:12:57;19.20;;;8.77;;
42726;SDS011;28372;56.832;60.658;2023-01-05T10:18:09;18.88;;;8.20;;
42726;SDS011;28372;56.832;60.658;2023-01-05T10:27:05;17.75;;;7.30;;
42726;SDS011;28372;56.832;60.658;2023-01-05T10:29:43;23.38;;;8.50;;
42726;SDS011;28372;56.832;60.658;2023-01-05T10:38:32;22.85;;;8.30;;
42726;SDS011;28372;56.832;60.658;2023-01-05T10:41:33;19.90;;;8.05;;
42726;SDS011;28372;56.832;60.658;2023-01-05T10:47:11;16.83;;;6.18;;
42726;SDS011;28372;56.832;60.658;2023-01-05T10:49:43;18.10;;;7.75;;
42726;SDS011;28372;56.832;60.658;2023-01-05T10:52:17;17.48;;;7.32;;
42726;SDS011;28372;56.832;60.658;2023-01-05T11:02:36;17.17;;;7.47;;
42726;SDS011;28372;56.832;60.658;2023-01-05T11:07:58;19.77;;;8.18;;
42726;SDS011;28372;56.832;60.658;2023-01-05T11:15:50;30.23;;;12.15;;
42726;SDS011;28372;56.832;60.658;2023-01-05T11:23:58;28.10;;;10.30;;
42726;SDS011;28372;56.832;60.658;2023-01-05T11:26:33;22.30;;;10.18;;
42726;SDS011;28372;56.832;60.658;2023-01-05T11:31:34;21.23;;;9.82;;
42726;SDS011;28372;56.832;60.658;2023-01-05T11:37:00;25.42;;;10.80;;
42726;SDS011;28372;56.832;60.658;2023-01-05T11:42:12;29.60;;;11.85;;
42726;SDS011;28372;56.832;60.658;2023-01-05T11:44:57;29.45;;;12.43;;
42726;SDS011;28372;56.832;60.658;2023-01-05T11:47:36;29.63;;;13.48;;
42726;SDS011;28372;56.832;60.658;2023-01-05T11:50:15;30.98;;;12.85;;
42726;SDS011;28372;56.832;60.658;2023-01-05T11:52:54;31.70;;;13.52;;
42726;SDS011;28372;56.832;60.658;2023-01-05T11:55:28;26.85;;;12.05;;
42726;SDS011;28372;56.832;60.658;2023-01-05T12:00:47;32.17;;;12.90;;
42726;SDS011;28372;56.832;60.658;2023-01-05T12:09:04;33.67;;;13.15;;
42726;SDS011;28372;56.832;60.658;2023-01-05T12:11:42;29.48;;;13.68;;
42726;SDS011;28372;56.832;60.658;2023-01-05T12:31:51;42.70;;;18.35;;
42726;SDS011;28372;56.832;60.658;2023-01-05T12:40:42;44.35;;;20.38;;
42726;SDS011;28372;56.832;60.658;2023-01-05T12:43:24;44.63;;;19.30;;
42726;SDS011;28372;56.832;60.658;2023-01-05T12:48:49;48.17;;;19.95;;
42726;SDS011;28372;56.832;60.658;2023-01-05T12:51:28;47.88;;;19.83;;
42726;SDS011;28372;56.832;60.658;2023-01-05T12:54:08;45.25;;;18.85;;
42726;SDS011;28372;56.832;60.658;2023-01-05T12:57:11;46.95;;;20.38;;
42726;SDS011;28372;56.832;60.658;2023-01-05T13:00:10;48.63;;;22.30;;
42726;SDS011;28372;56.832;60.658;2023-01-05T13:02:42;46.53;;;20.85;;
42726;SDS011;28372;56.832;60.658;2023-01-05T13:13:22;47.75;;;20.15;;
42726;SDS011;28372;56.832;60.658;2023-01-05T13:16:11;49.08;;;22.10;;
42726;SDS011;28372;56.832;60.658;2023-01-05T13:18:46;49.13;;;21.30;;
42726;SDS011;28372;56.832;60.658;2023-01-05T13:21:20;57.88;;;23.67;;
42726;SDS011;28372;56.832;60.658;2023-01-05T13:23:51;60.97;;;23.98;;
42726;SDS011;28372;56.832;60.658;2023-01-05T13:28:54;59.33;;;23.98;;
42726;SDS011;28372;56.832;60.658;2023-01-05T13:56:39;50.72;;;20.88;;
42726;SDS011;28372;56.832;60.658;2023-01-05T13:59:12;56.92;;;24.10;;
42726;SDS011;28372;56.832;60.658;2023-01-05T14:02:01;40.95;;;16.63;;
42726;SDS011;28372;56.832;60.658;2023-01-05T14:04:32;34.13;;;15.02;;
42726;SDS011;28372;56.832;60.658;2023-01-05T14:07:05;38.03;;;17.50;;
42726;SDS011;28372;56.832;60.658;2023-01-05T14:09:41;42.55;;;16.33;;
42726;SDS011;28372;56.832;60.658;2023-01-05T14:25:53;32.67;;;14.77;;
42726;SDS011;28372;56.832;60.658;2023-01-05T14:33:49;34.42;;;15.15;;
42726;SDS011;28372;56.832;60.658;2023-01-05T14:37:01;36.47;;;15.30;;
42726;SDS011;28372;56.832;60.658;2023-01-05T14:39:25;33.30;;;14.57;;
42726;SDS011;28372;56.832;60.658;2023-01-05T14:42:21;39.50;;;16.45;;
42726;SDS011;28372;56.832;60.658;2023-01-05T14:45:06;37.50;;;16.88;;
42726;SDS011;28372;56.832;60.658;2023-01-05T14:47:47;45.47;;;18.40;;
42726;SDS011;28372;56.832;60.658;2023-01-05T14:56:12;42.05;;;17.67;;
42726;SDS011;28372;56.832;60.658;2023-01-05T15:01:24;45.70;;;18.55;;
42726;SDS011;28372;56.832;60.658;2023-01-05T15:06:54;59.28;;;23.13;;
42726;SDS011;28372;56.832;60.658;2023-01-05T15:09:35;50.38;;;20.48;;
42726;SDS011;28372;56.832;60.658;2023-01-05T15:18:17;35.67;;;14.85;;
42726;SDS011;28372;56.832;60.658;2023-01-05T15:21:13;46.83;;;18.63;;
42726;SDS011;28372;56.832;60.658;2023-01-05T15:37:32;46.85;;;20.58;;
42726;SDS011;28372;56.832;60.658;2023-01-05T15:40:02;36.08;;;15.05;;
42726;SDS011;28372;56.832;60.658;2023-01-05T15:42:42;35.70;;;15.45;;
42726;SDS011;28372;56.832;60.658;2023-01-05T15:47:47;39.70;;;16.88;;
42726;SDS011;28372;56.832;60.658;2023-01-05T15:50:19;41.50;;;18.42;;
42726;SDS011;28372;56.832;60.658;2023-01-05T15:52:53;51.13;;;21.50;;
42726;SDS011;28372;56.832;60.658;2023-01-05T15:55:23;54.25;;;22.95;;
42726;SDS011;28372;56.832;60.658;2023-01-05T15:57:56;55.45;;;23.48;;
42726;SDS011;28372;56.832;60.658;2023-01-05T16:00:27;52.33;;;23.27;;
42726;SDS011;28372;56.832;60.658;2023-01-05T16:02:56;61.03;;;23.88;;
42726;SDS011;28372;56.832;60.658;2023-01-05T16:05:26;52.85;;;22.80;;
42726;SDS011;28372;56.832;60.658;2023-01-05T16:08:02;45.50;;;20.83;;
42726;SDS011;28372;56.832;60.658;2023-01-05T16:10:44;46.83;;;20.35;;
42726;SDS011;28372;56.832;60.658;2023-01-05T16:16:00;45.90;;;19.90;;
42726;SDS011;28372;56.832;60.658;2023-01-05T16:18:31;44.95;;;19.52;;
42726;SDS011;28372;56.832;60.658;2023-01-05T16:21:22;44.15;;;18.73;;
42726;SDS011;28372;56.832;60.658;2023-01-05T16:23:58;45.63;;;19.25;;
42726;SDS011;28372;56.832;60.658;2023-01-05T16:26:34;38.20;;;16.65;;
42726;SDS011;28372;56.832;60.658;2023-01-05T16:29:19;31.55;;;13.73;;
42726;SDS011;28372;56.832;60.658;2023-01-05T16:31:55;36.47;;;14.70;;
42726;SDS011;28372;56.832;60.658;2023-01-05T16:34:23;34.10;;;15.32;;
42726;SDS011;28372;56.832;60.658;2023-01-05T16:39:38;36.22;;;16.25;;
42726;SDS011;28372;56.832;60.658;2023-01-05T16:45:17;41.97;;;17.40;;
42726;SDS011;28372;56.832;60.658;2023-01-05T16:47:49;40.00;;;16.50;;
42726;SDS011;28372;56.832;60.658;2023-01-05T16:52:51;42.33;;;18.38;;
42726;SDS011;28372;56.832;60.658;2023-01-05T16:55:23;37.33;;;16.10;;
42726;SDS011;28372;56.832;60.658;2023-01-05T16:57:56;38.80;;;17.02;;
42726;SDS011;28372;56.832;60.658;2023-01-05T17:02:56;33.33;;;14.63;;
42726;SDS011;28372;56.832;60.658;2023-01-05T17:05:26;39.83;;;16.55;;
42726;SDS011;28372;56.832;60.658;2023-01-05T17:10:48;37.30;;;17.00;;
42726;SDS011;28372;56.832;60.658;2023-01-05T17:13:17;39.35;;;16.35;;
42726;SDS011;28372;56.832;60.658;2023-01-05T17:15:49;39.17;;;15.98;;
42726;SDS011;28372;56.832;60.658;2023-01-05T17:18:19;43.53;;;17.85;;
42726;SDS011;28372;56.832;60.658;2023-01-05T17:20:49;41.88;;;17.50;;
42726;SDS011;28372;56.832;60.658;2023-01-05T17:25:56;50.55;;;20.20;;
42726;SDS011;28372;56.832;60.658;2023-01-05T17:28:27;48.45;;;19.52;;
42726;SDS011;28372;56.832;60.658;2023-01-05T17:30:55;47.70;;;19.75;;
42726;SDS011;28372;56.832;60.658;2023-01-05T17:33:23;47.90;;;19.88;;
42726;SDS011;28372;56.832;60.658;2023-01-05T17:35:50;55.78;;;24.48;;
42726;SDS011;28372;56.832;60.658;2023-01-05T17:38:18;46.88;;;20.45;;
42726;SDS011;28372;56.832;60.658;2023-01-05T17:40:46;53.22;;;22.63;;
42726;SDS011;28372;56.832;60.658;2023-01-05T17:43:13;45.80;;;20.55;;
42726;SDS011;28372;56.832;60.658;2023-01-05T17:45:42;52.60;;;21.63;;
42726;SDS011;28372;56.832;60.658;2023-01-05T17:48:10;51.08;;;22.08;;
42726;SDS011;28372;56.832;60.658;2023-01-05T17:50:38;40.95;;;18.67;;
42726;SDS011;28372;56.832;60.658;2023-01-05T17:53:05;44.40;;;18.17;;
42726;SDS011;28372;56.832;60.658;2023-01-05T17:55:33;50.35;;;18.55;;
42726;SDS011;28372;56.832;60.658;2023-01-05T17:58:01;43.72;;;18.33;;
42726;SDS011;28372;56.832;60.658;2023-01-05T18:00:32;38.90;;;17.45;;
42726;SDS011;28372;56.832;60.658;2023-01-05T18:03:05;44.28;;;17.83;;
42726;SDS011;28372;56.832;60.658;2023-01-05T18:05:36;47.22;;;20.27;;
42726;SDS011;28372;56.832;60.658;2023-01-05T18:08:03;41.97;;;17.20;;
42726;SDS011;28372;56.832;60.658;2023-01-05T18:10:31;38.42;;;16.30;;
42726;SDS011;28372;56.832;60.658;2023-01-05T18:12:58;38.28;;;15.15;;
42726;SDS011;28372;56.832;60.658;2023-01-05T18:15:26;35.17;;;15.93;;
42726;SDS011;28372;56.832;60.658;2023-01-05T18:17:58;36.30;;;14.70;;
42726;SDS011;28372;56.832;60.658;2023-01-05T18:20:27;33.63;;;14.77;;
42726;SDS011;28372;56.832;60.658;2023-01-05T18:22:55;39.67;;;14.77;;
42726;SDS011;28372;56.832;60.658;2023-01-05T18:25:23;32.30;;;13.02;;
42726;SDS011;28372;56.832;60.658;2023-01-05T18:27:51;30.90;;;11.27;;
42726;SDS011;28372;56.832;60.658;2023-01-05T18:30:19;32.25;;;13.57;;
42726;SDS011;28372;56.832;60.658;2023-01-05T18:32:46;33.30;;;13.48;;
42726;SDS011;28372;56.832;60.658;2023-01-05T18:35:14;29.13;;;12.65;;
42726;SDS011;28372;56.832;60.658;2023-01-05T18:37:42;32.47;;;13.55;;
42726;SDS011;28372;56.832;60.658;2023-01-05T18:40:10;33.30;;;14.32;;